sensor_id;sensor_type;location;lat;lon;timestamp;pressure;altitude;pressure_sealevel;temperature;humidity
80424;BME280;69765;47.668;19.326;2023-12-20T00:02:53;99315.63;;;-1.62;100.00
80424;BME280;69765;47.668;19.326;2023-12-20T00:05:55;99310.47;;;-1.85;100.00
80424;BME280;69765;47.668;19.326;2023-12-20T00:08:57;99298.13;;;-1.91;100.00
80424;BME280;69765;47.668;19.326;2023-12-20T00:12:00;99301.38;;;-2.20;100.00
80424;BME280;69765;47.668;19.326;2023-12-20T00:15:02;99289.19;;;-2.10;100.00
80424;BME280;69765;47.668;19.326;2023-12-20T00:18:05;99278.78;;;-2.13;100.00
80424;BME280;69765;47.668;19.326;2023-12-20T00:21:07;99266.75;;;-2.09;100.00
80424;BME280;69765;47.668;19.326;2023-12-20T00:24:09;99267.97;;;-1.76;100.00
80424;BME280;69765;47.668;19.326;2023-12-20T00:27:11;99271.00;;;-1.79;100.00
80424;BME280;69765;47.668;19.326;2023-12-20T00:30:14;99262.22;;;-1.75;100.00
80424;BME280;69765;47.668;19.326;2023-12-20T00:33:16;99255.94;;;-1.79;100.00
80424;BME280;69765;47.668;19.326;2023-12-20T00:36:18;99246.13;;;-1.99;100.00
80424;BME280;69765;47.668;19.326;2023-12-20T00:39:21;99238.59;;;-1.92;100.00
80424;BME280;69765;47.668;19.326;2023-12-20T00:42:23;99237.34;;;-1.88;100.00
80424;BME280;69765;47.668;19.326;2023-12-20T00:45:25;99228.88;;;-1.82;100.00
80424;BME280;69765;47.668;19.326;2023-12-20T00:48:28;99233.59;;;-1.92;100.00
80424;BME280;69765;47.668;19.326;2023-12-20T00:51:32;99230.81;;;-1.72;100.00
80424;BME280;69765;47.668;19.326;2023-12-20T00:54:34;99235.28;;;-1.55;100.00
80424;BME280;69765;47.668;19.326;2023-12-20T00:57:37;99230.41;;;-1.53;100.00
80424;BME280;69765;47.668;19.326;2023-12-20T01:00:39;99225.41;;;-1.61;100.00
80424;BME280;69765;47.668;19.326;2023-12-20T01:03:45;99224.88;;;-1.65;100.00
80424;BME280;69765;47.668;19.326;2023-12-20T01:06:48;99225.00;;;-1.49;100.00
80424;BME280;69765;47.668;19.326;2023-12-20T01:09:50;99213.13;;;-1.43;100.00
80424;BME280;69765;47.668;19.326;2023-12-20T01:12:52;99218.97;;;-1.66;100.00
80424;BME280;69765;47.668;19.326;2023-12-20T01:15:54;99218.97;;;-1.66;100.00
80424;BME280;69765;47.668;19.326;2023-12-20T01:18:57;99216.75;;;-1.56;100.00
80424;BME280;69765;47.668;19.326;2023-12-20T01:22:00;99202.06;;;-1.52;100.00
80424;BME280;69765;47.668;19.326;2023-12-20T01:25:03;99200.28;;;-1.61;100.00
80424;BME280;69765;47.668;19.326;2023-12-20T01:28:05;99193.34;;;-1.70;100.00
80424;BME280;69765;47.668;19.326;2023-12-20T01:31:08;99186.69;;;-1.63;100.00
80424;BME280;69765;47.668;19.326;2023-12-20T01:34:12;99183.81;;;-1.66;100.00
80424;BME280;69765;47.668;19.326;2023-12-20T01:37:15;99184.75;;;-1.80;100.00
80424;BME280;69765;47.668;19.326;2023-12-20T01:40:17;99177.22;;;-1.80;100.00
80424;BME280;69765;47.668;19.326;2023-12-20T01:43:19;99162.72;;;-1.82;100.00
80424;BME280;69765;47.668;19.326;2023-12-20T01:46:22;99152.84;;;-1.73;100.00
80424;BME280;69765;47.668;19.326;2023-12-20T01:49:24;99153.97;;;-1.86;100.00
80424;BME280;69765;47.668;19.326;2023-12-20T01:52:26;99146.78;;;-1.83;100.00
80424;BME280;69765;47.668;19.326;2023-12-20T01:55:31;99145.00;;;-1.91;100.00
80424;BME280;69765;47.668;19.326;2023-12-20T01:58:34;99134.41;;;-1.81;100.00
80424;BME280;69765;47.668;19.326;2023-12-20T02:01:36;99120.81;;;-1.90;100.00
80424;BME280;69765;47.668;19.326;2023-12-20T02:04:39;99108.75;;;-1.78;100.00
80424;BME280;69765;47.668;19.326;2023-12-20T02:07:42;99095.41;;;-1.63;100.00
80424;BME280;69765;47.668;19.326;2023-12-20T02:10:45;99090.09;;;-1.81;100.00
80424;BME280;69765;47.668;19.326;2023-12-20T02:13:47;99084.69;;;-1.76;100.00
80424;BME280;69765;47.668;19.326;2023-12-20T02:16:49;99081.75;;;-1.65;100.00
80424;BME280;69765;47.668;19.326;2023-12-20T02:19:52;99079.53;;;-1.78;100.00
80424;BME280;69765;47.668;19.326;2023-12-20T02:22:54;99072.06;;;-1.92;100.00
80424;BME280;69765;47.668;19.326;2023-12-20T02:25:56;99077.25;;;-1.91;100.00
80424;BME280;69765;47.668;19.326;2023-12-20T02:28:59;99069.19;;;-1.88;100.00
80424;BME280;69765;47.668;19.326;2023-12-20T02:32:01;99064.28;;;-1.80;100.00
80424;BME280;69765;47.668;19.326;2023-12-20T02:35:05;99073.84;;;-1.91;100.00
80424;BME280;69765;47.668;19.326;2023-12-20T02:38:07;99067.88;;;-1.85;100.00
80424;BME280;69765;47.668;19.326;2023-12-20T02:41:09;99059.31;;;-1.87;100.00
80424;BME280;69765;47.668;19.326;2023-12-20T02:44:12;99062.34;;;-1.89;100.00
80424;BME280;69765;47.668;19.326;2023-12-20T02:47:14;99062.53;;;-1.88;100.00
80424;BME280;69765;47.668;19.326;2023-12-20T02:50:16;99062.56;;;-1.95;100.00
80424;BME280;69765;47.668;19.326;2023-12-20T02:53:18;99049.22;;;-1.80;100.00
80424;BME280;69765;47.668;19.326;2023-12-20T02:56:21;99050.69;;;-1.89;100.00
80424;BME280;69765;47.668;19.326;2023-12-20T02:59:23;99044.47;;;-1.92;100.00
80424;BME280;69765;47.668;19.326;2023-12-20T03:02:25;99048.69;;;-1.84;100.00
80424;BME280;69765;47.668;19.326;2023-12-20T03:05:27;99050.97;;;-1.71;100.00
80424;BME280;69765;47.668;19.326;2023-12-20T03:08:30;99049.19;;;-1.72;100.00
80424;BME280;69765;47.668;19.326;2023-12-20T03:11:33;99051.44;;;-1.60;100.00
80424;BME280;69765;47.668;19.326;2023-12-20T03:14:35;99052.44;;;-1.81;100.00
80424;BME280;69765;47.668;19.326;2023-12-20T03:17:37;99043.16;;;-1.89;100.00
80424;BME280;69765;47.668;19.326;2023-12-20T03:20:39;99045.88;;;-1.94;100.00
80424;BME280;69765;47.668;19.326;2023-12-20T03:23:43;99050.09;;;-1.79;100.00
80424;BME280;69765;47.668;19.326;2023-12-20T03:26:46;99041.91;;;-1.55;100.00
80424;BME280;69765;47.668;19.326;2023-12-20T03:29:48;99040.34;;;-1.39;100.00
80424;BME280;69765;47.668;19.326;2023-12-20T03:32:51;99048.22;;;-1.36;100.00
80424;BME280;69765;47.668;19.326;2023-12-20T03:35:53;99038.47;;;-1.33;100.00
80424;BME280;69765;47.668;19.326;2023-12-20T03:38:55;99040.69;;;-1.36;100.00
80424;BME280;69765;47.668;19.326;2023-12-20T03:41:57;99053.66;;;-1.47;100.00
80424;BME280;69765;47.668;19.326;2023-12-20T03:45:00;99043.63;;;-1.47;100.00
80424;BME280;69765;47.668;19.326;2023-12-20T03:48:02;99041.28;;;-1.45;100.00
80424;BME280;69765;47.668;19.326;2023-12-20T03:51:04;99051.03;;;-1.33;100.00
80424;BME280;69765;47.668;19.326;2023-12-20T03:54:07;99048.53;;;-1.33;100.00
80424;BME280;69765;47.668;19.326;2023-12-20T03:57:09;99044.00;;;-1.28;100.00
80424;BME280;69765;47.668;19.326;2023-12-20T04:00:12;99045.81;;;-1.27;100.00
80424;BME280;69765;47.668;19.326;2023-12-20T04:03:14;99038.94;;;-1.21;100.00
80424;BME280;69765;47.668;19.326;2023-12-20T04:06:17;99036.69;;;-1.34;100.00
80424;BME280;69765;47.668;19.326;2023-12-20T04:09:20;99034.16;;;-1.49;100.00
80424;BME280;69765;47.668;19.326;2023-12-20T04:12:22;99019.38;;;-1.92;100.00
80424;BME280;69765;47.668;19.326;2023-12-20T04:15:24;99005.97;;;-2.00;100.00
80424;BME280;69765;47.668;19.326;2023-12-20T04:18:27;99007.50;;;-1.93;100.00
80424;BME280;69765;47.668;19.326;2023-12-20T04:21:30;99005.41;;;-1.74;100.00
80424;BME280;69765;47.668;19.326;2023-12-20T04:24:32;99004.66;;;-1.66;100.00
80424;BME280;69765;47.668;19.326;2023-12-20T04:27:34;98989.88;;;-1.56;100.00
80424;BME280;69765;47.668;19.326;2023-12-20T04:30:37;98997.59;;;-1.55;100.00
80424;BME280;69765;47.668;19.326;2023-12-20T04:33:39;98993.28;;;-1.56;100.00
80424;BME280;69765;47.668;19.326;2023-12-20T04:36:41;98990.31;;;-1.44;100.00
80424;BME280;69765;47.668;19.326;2023-12-20T04:39:43;98984.31;;;-1.53;100.00
80424;BME280;69765;47.668;19.326;2023-12-20T04:42:46;98974.72;;;-1.95;100.00
80424;BME280;69765;47.668;19.326;2023-12-20T04:45:48;98948.09;;;-2.01;100.00
80424;BME280;69765;47.668;19.326;2023-12-20T04:48:50;98929.81;;;-2.30;100.00
80424;BME280;69765;47.668;19.326;2023-12-20T04:51:53;98934.00;;;-2.15;100.00
80424;BME280;69765;47.668;19.326;2023-12-20T04:54:55;98937.56;;;-2.43;100.00
80424;BME280;69765;47.668;19.326;2023-12-20T04:57:57;98934.25;;;-2.28;100.00
80424;BME280;69765;47.668;19.326;2023-12-20T05:00:59;98943.59;;;-2.04;100.00
80424;BME280;69765;47.668;19.326;2023-12-20T05:04:02;98935.47;;;-1.94;100.00
80424;BME280;69765;47.668;19.326;2023-12-20T05:07:04;98923.50;;;-1.97;100.00
80424;BME280;69765;47.668;19.326;2023-12-20T05:10:08;98925.59;;;-2.16;100.00
80424;BME280;69765;47.668;19.326;2023-12-20T05:13:11;98919.03;;;-1.99;100.00
80424;BME280;69765;47.668;19.326;2023-12-20T05:16:13;98924.00;;;-1.92;100.00
80424;BME280;69765;47.668;19.326;2023-12-20T05:19:16;98919.47;;;-1.88;100.00
80424;BME280;69765;47.668;19.326;2023-12-20T05:22:19;98910.75;;;-1.75;100.00
80424;BME280;69765;47.668;19.326;2023-12-20T05:25:22;98908.84;;;-1.78;100.00
80424;BME280;69765;47.668;19.326;2023-12-20T05:28:24;98909.22;;;-1.82;100.00
80424;BME280;69765;47.668;19.326;2023-12-20T05:31:26;98895.53;;;-2.00;100.00
80424;BME280;69765;47.668;19.326;2023-12-20T05:34:31;98913.66;;;-2.02;100.00
80424;BME280;69765;47.668;19.326;2023-12-20T05:37:34;98917.00;;;-1.95;100.00
80424;BME280;69765;47.668;19.326;2023-12-20T05:40:36;98907.56;;;-1.97;100.00
80424;BME280;69765;47.668;19.326;2023-12-20T05:43:39;98889.06;;;-1.98;100.00
80424;BME280;69765;47.668;19.326;2023-12-20T05:46:41;98900.44;;;-2.09;100.00
80424;BME280;69765;47.668;19.326;2023-12-20T05:49:44;98909.59;;;-2.09;100.00
80424;BME280;69765;47.668;19.326;2023-12-20T05:52:46;98901.91;;;-2.11;100.00
80424;BME280;69765;47.668;19.326;2023-12-20T05:55:48;98911.16;;;-2.02;100.00
80424;BME280;69765;47.668;19.326;2023-12-20T05:58:50;98898.28;;;-2.06;100.00
80424;BME280;69765;47.668;19.326;2023-12-20T06:01:52;98898.28;;;-2.06;100.00
80424;BME280;69765;47.668;19.326;2023-12-20T06:04:55;98895.44;;;-2.09;100.00
80424;BME280;69765;47.668;19.326;2023-12-20T06:07:57;98894.19;;;-2.12;100.00
80424;BME280;69765;47.668;19.326;2023-12-20T06:11:03;98894.16;;;-2.05;100.00
80424;BME280;69765;47.668;19.326;2023-12-20T06:14:05;98899.41;;;-2.11;100.00
80424;BME280;69765;47.668;19.326;2023-12-20T06:17:08;98902.53;;;-1.97;100.00
80424;BME280;69765;47.668;19.326;2023-12-20T06:20:10;98905.53;;;-1.93;100.00
80424;BME280;69765;47.668;19.326;2023-12-20T06:23:13;98899.41;;;-1.88;100.00
80424;BME280;69765;47.668;19.326;2023-12-20T06:26:15;98894.03;;;-1.91;100.00
80424;BME280;69765;47.668;19.326;2023-12-20T06:29:17;98889.19;;;-1.89;100.00
80424;BME280;69765;47.668;19.326;2023-12-20T06:32:19;98893.56;;;-2.02;100.00
80424;BME280;69765;47.668;19.326;2023-12-20T06:35:22;98896.78;;;-1.96;100.00
80424;BME280;69765;47.668;19.326;2023-12-20T06:38:24;98914.28;;;-1.89;100.00
80424;BME280;69765;47.668;19.326;2023-12-20T06:41:27;98918.09;;;-1.93;100.00
80424;BME280;69765;47.668;19.326;2023-12-20T06:44:30;98930.03;;;-1.83;100.00
80424;BME280;69765;47.668;19.326;2023-12-20T06:47:32;98926.44;;;-1.85;100.00
80424;BME280;69765;47.668;19.326;2023-12-20T06:50:34;98938.84;;;-1.87;100.00
80424;BME280;69765;47.668;19.326;2023-12-20T06:53:36;98942.63;;;-1.90;100.00
80424;BME280;69765;47.668;19.326;2023-12-20T06:56:38;98949.78;;;-1.93;100.00
80424;BME280;69765;47.668;19.326;2023-12-20T06:59:41;98957.50;;;-1.92;100.00
80424;BME280;69765;47.668;19.326;2023-12-20T07:02:43;98962.16;;;-1.88;100.00
80424;BME280;69765;47.668;19.326;2023-12-20T07:05:46;98947.91;;;-1.80;100.00
80424;BME280;69765;47.668;19.326;2023-12-20T07:08:48;98935.31;;;-1.73;100.00
80424;BME280;69765;47.668;19.326;2023-12-20T07:11:50;98931.31;;;-1.87;100.00
80424;BME280;69765;47.668;19.326;2023-12-20T07:14:52;98929.91;;;-1.92;100.00
80424;BME280;69765;47.668;19.326;2023-12-20T07:17:55;98924.50;;;-1.88;100.00
80424;BME280;69765;47.668;19.326;2023-12-20T07:20:57;98927.09;;;-1.79;100.00
80424;BME280;69765;47.668;19.326;2023-12-20T07:24:01;98917.16;;;-1.70;100.00
80424;BME280;69765;47.668;19.326;2023-12-20T07:27:03;98925.19;;;-1.66;100.00
80424;BME280;69765;47.668;19.326;2023-12-20T07:30:05;98928.66;;;-1.49;100.00
80424;BME280;69765;47.668;19.326;2023-12-20T07:33:08;98931.41;;;-1.55;100.00
80424;BME280;69765;47.668;19.326;2023-12-20T07:36:12;98941.47;;;-1.39;100.00
80424;BME280;69765;47.668;19.326;2023-12-20T07:39:14;98936.94;;;-1.50;100.00
80424;BME280;69765;47.668;19.326;2023-12-20T07:42:17;98936.94;;;-1.50;100.00
80424;BME280;69765;47.668;19.326;2023-12-20T07:45:19;98937.63;;;-1.51;100.00
80424;BME280;69765;47.668;19.326;2023-12-20T07:48:21;98941.47;;;-1.39;100.00
80424;BME280;69765;47.668;19.326;2023-12-20T07:51:24;98942.81;;;-1.27;100.00
80424;BME280;69765;47.668;19.326;2023-12-20T07:54:29;98925.94;;;-1.28;100.00
